ADDS METAR Data INFO
IDs: Format: Raw Decoded Include TAF

Data at: 2252 UTC 16 Jan 2018

PAAK 162217Z AUTO 25017KT 10SM SCT018 BKN041 01/00 A2985 RMK AO2 FZRANO
PAAK 162156Z AUTO 26015KT 10SM FEW009 BKN022 OVC029 01/M01 A2986 RMK AO2 UPB20E46RAB30E31SNE20B31E44 SLP114 P0000 T00061006 FZRANO
PAAK 162143Z AUTO 28012G18KT 9SM -SN FEW009 BKN021 OVC026 01/M01 A2987 RMK AO2 UPB20E30RAB30E31SNE20B31 P0000 FZRANO
PAAK 162135Z AUTO 27012G20KT 2 1/2SM -SN BR FEW007 BKN023 OVC030 01/00 A2986 RMK AO2 VIS 3/4V5 UPB20E30RAB30E31SNE20B31 P0000 FZRANO
PAAK 162117Z AUTO 27014KT 3SM -SN BR FEW007 BKN011 OVC030 00/M01 A2987 RMK AO2 P0000 FZRANO
PAAK 162114Z AUTO 27016KT 1 1/2SM -SN BR SCT007 BKN011 OVC033 00/M01 A2987 RMK AO2 P0000 FZRANO
PAAK 162101Z AUTO 27015G19KT 2 1/2SM -SN BR SCT009 BKN013 OVC045 00/M01 A2987 RMK AO2 P0000 FZRANO
PAAK 162059Z AUTO 27017KT 1 1/4SM -SN BR BKN009 BKN015 OVC045 00/M01 A2987 RMK AO2 CIG 005V012 P0000 FZRANO
PAAK 162047Z AUTO 27019G27KT 3/4SM -SN BR BKN009 BKN015 OVC026 00/M01 A2987 RMK AO2 PK WND 27027/2038 RAB03E05UPB42E46SNE27B46 CIG 005V012 P0000 FZRANO
PAAK 162045Z AUTO 27018G27KT 1 1/2SM UP BR FEW007 BKN012 OVC024 00/M01 A2987 RMK AO2 PK WND 27027/2038 RAB03E05UPB42SNE27 P0000 FZRANO
PAAK 162022Z AUTO 28015KT 3SM -SN BR SCT005 BKN011 OVC018 00/M01 A2987 RMK AO2 RAB03E05 P0000 FZRANO
PAAK 162020Z AUTO 28014KT 3/4SM -SN BR FEW005 BKN011 OVC018 00/M01 A2987 RMK AO2 RAB03E05 P0000 FZRANO
PAAK 162018Z AUTO 27014KT 1/2SM -SN FG BKN007 OVC013 00/M01 A2987 RMK AO2 RAB03E05 CIG 005V010 P0000 FZRANO
PAAK 162009Z AUTO 29016G22KT 1/4SM -SN FG FEW005 BKN013 OVC023 01/M01 A2987 RMK AO2 VIS M1/4V5 RAB03E05 P0000 FZRANO
PAAK 162005Z AUTO 27018G22KT 1 1/2SM -SN BR BKN013 BKN021 OVC038 01/M01 A2986 RMK AO2 VIS 1/4V5 RAB03E05 P0000 FZRANO
PAAK 161956Z AUTO 26016G22KT 5SM -SN BR SCT011 BKN021 OVC026 01/M01 A2986 RMK AO2 RAB45E50SNE11B50 SLP111 P0000 T00111011 FZRANO
PAAK 161935Z AUTO 29012KT 10SM SCT021 BKN025 OVC046 01/M02 A2985 RMK AO2 SNE11 P0000 FZRANO
PAAK 161921Z AUTO 28009KT 10SM FEW008 BKN039 OVC049 01/M02 A2985 RMK AO2 SNE11 P0000 FZRANO
PAAK 161857Z AUTO 28011KT 3SM -SN BR BKN008 BKN030 OVC039 00/M01 A2985 RMK AO2 CIG 004V017 P0000 FZRANO
PAAK 161852Z AUTO 29012KT 1 1/2SM -SN BR BKN008 BKN030 OVC039 00/M01 A2985 RMK AO2 RAB33E37SNB37 CIG 004V017 SLP109 P0000 T00001011 FZRANO
PAAK 161843Z AUTO 27019G25KT 1SM -SN BR SCT006 BKN034 OVC045 00/M02 A2984 RMK AO2 RAB33E37SNB37 P0000 FZRANO
PAAK 161839Z AUTO 27018G25KT 2SM -SN FEW008 BKN037 OVC045 01/M03 A2984 RMK AO2 RAB33E37SNB37 P0000 FZRANO
PAAK 161756Z AUTO 29009KT 10SM FEW040 BKN048 OVC090 01/M04 A2983 RMK AO2 SLP103 60000 T00111044 10011 21011 51019 FZRANO
PAAK 161656Z AUTO 29012KT 10SM BKN036 OVC046 01/M04 A2982 RMK AO2 SLP099 T00111044 FZRANO
PAAK 161556Z AUTO 31019G23KT 10SM SCT036 BKN047 01/M05 A2980 RMK AO2 SLP091 T00111050 FZRANO
PAAK 161456Z AUTO 29016G23KT 10SM FEW026 SCT032 BKN047 01/M04 A2978 RMK AO2 PK WND 30029/1402 SLP084 60000 T00111044 51018 FZRANO
PAAK 161356Z AUTO 29019G25KT 10SM CLR 01/M04 A2976 RMK AO2 PK WND 30026/1338 SLP079 T00061044 FZRANO
PAAK 161256Z AUTO 30018G24KT 9SM FEW008 SCT015 BKN045 M01/M03 A2975 RMK AO2 PK WND 30032/1240 RAB08E10SNB10E56 SLP074 P0000 T10061033 FZRANO
PAAK 161249Z AUTO 29015G32KT 3SM -SN FEW008 BKN015 OVC050 M01/M03 A2975 RMK AO2 PK WND 30032/1240 RAB08E10SNB10 P0000 FZRANO
PAAK 161243Z AUTO 32022G32KT 1 1/4SM -SN BR SCT008 BKN017 OVC024 M01/M03 A2975 RMK AO2 PK WND 30032/1240 RAB08E10SNB10 P0000 FZRANO
PAAK 161240Z AUTO 31025G32KT 1SM -SN BR SCT011 BKN019 OVC028 M01/M02 A2975 RMK AO2 PK WND 30032/1240 RAB08E10SNB10 P0000 FZRANO
PAAK 161237Z AUTO 31023G29KT 1 1/4SM -SN BR FEW008 BKN014 OVC031 M01/M02 A2975 RMK AO2 PK WND 31029/1235 RAB08E10SNB10 P0000 FZRANO
PAAK 161229Z AUTO 32015G22KT 2 1/2SM -SN FEW008 SCT017 OVC028 00/M03 A2974 RMK AO2 RAB08E10SNB10 P0000 FZRANO
PAAK 161156Z AUTO 30013KT 10SM SCT037 01/M05 A2972 RMK AO2 SLP066 60000 T00061050 10006 21011 51013 FZRANO
PAAK 161056Z AUTO 32020G25KT 10SM FEW038 01/M06 A2972 RMK AO2 PK WND 31027/1024 RAE0958UPB0958E02 SLP064 P0000 T00061061 FZRANO
PAAK 160956Z AUTO 31016G29KT 10SM -RA SCT034 BKN055 OVC065 00/M07 A2970 RMK AO2 PK WND 30029/0949 RAB50 SLP059 P0000 T00001067 400171017 FZRANO
PAAK 160856Z AUTO 31022G26KT 10SM SCT029 SCT038 BKN047 01/M04 A2968 RMK AO2 PK WND 30026/0856 UPB31E50SNE0757B33E48 SLP053 P0000 60000 T00061044 52022 FZRANO
PAAK 160747Z AUTO 33015G23KT 9SM -SN FEW011 SCT020 SCT038 M01/M04 A2967 RMK AO2 PK WND 30026/0735 SNB11 P0000 FZRANO
PAAK 160739Z AUTO 31018G26KT 5SM -SN BR FEW011 BKN020 BKN038 M01/M03 A2966 RMK AO2 PK WND 30026/0735 SNB11 P0000 FZRANO
PAAK 160656Z AUTO 29018G24KT 10SM FEW042 SCT049 OVC060 01/M06 A2963 RMK AO2 UPB14E16SNB16E27 SLP036 P0000 T00061056 FZRANO
PAAK 160556Z AUTO 31015G21KT 10SM SCT045 BKN055 01/M06 A2962 RMK AO2 SNE28 SLP031 P0000 60000 T00061061 10011 21011 51024 FZRANO
PAAK 160507Z AUTO 30013KT 4SM -SN BR FEW009 BKN030 OVC035 M01/M03 A2960 RMK AO2 P0000 FZRANO
PAAK 160459Z AUTO 29016KT 2SM -SN BR FEW009 SCT021 BKN034 M01/M02 A2959 RMK AO2 P0000 FZRANO
PAAK 160456Z AUTO 29014G26KT 1 1/2SM -SN BR FEW009 SCT021 BKN028 M01/M02 A2959 RMK AO2 PK WND 31027/0411 UPB08E13SNB13 SLP022 P0000 T10111022 FZRANO
PAAK 160454Z AUTO 29014G26KT 1 1/2SM -SN BR FEW009 SCT021 BKN030 M01/M03 A2959 RMK AO2 PK WND 31027/0411 UPB08E13SNB13 P0000 FZRANO
PAAK 160450Z AUTO 30019G26KT 2SM -SN BR FEW009 SCT021 BKN028 M01/M03 A2960 RMK AO2 PK WND 31027/0411 UPB08E13SNB13 P0000 FZRANO
PAAK 160446Z AUTO 31017G25KT 9SM -SN FEW010 SCT023 BKN036 00/M03 A2959 RMK AO2 PK WND 31027/0411 UPB08E13SNB13 P0000 FZRANO
PAAK 160434Z AUTO 31010G16KT 9SM -SN FEW008 SCT015 BKN024 M01/M03 A2959 RMK AO2 PK WND 31027/0411 UPB08E13SNB13 P0000 FZRANO
PAAK 160428Z AUTO 31011KT 2SM -SN BR SCT010 BKN024 OVC032 M01/M02 A2959 RMK AO2 PK WND 31027/0411 UPB08E13SNB13 P0000 FZRANO
PAAK 160425Z AUTO 31012G24KT 1SM -SN BR SCT010 BKN019 BKN025 M01/M02 A2959 RMK AO2 PK WND 31027/0411 UPB08E13SNB13 P0000 FZRANO
PAAK 160419Z AUTO 31017G27KT 1/2SM -SN FZFG SCT008 BKN019 BKN025 M01/M02 A2959 RMK AO2 PK WND 31027/0411 UPB08E13SNB13 P0000 FZRANO
PAAK 160415Z AUTO 30018G27KT 1SM -SN BR FEW008 SCT019 BKN025 M01/M02 A2959 RMK AO2 PK WND 31027/0411 UPB08E13SNB13 P0000 FZRANO
PAAK 160413Z AUTO 30019G27KT 1 1/2SM -SN BR FEW019 SCT024 BKN033 M01/M02 A2958 RMK AO2 PK WND 31027/0411 UPB08E13SNB13 P0000 FZRANO
PAAK 160356Z AUTO 31014KT 10SM FEW022 00/M03 A2958 RMK AO2 UPB42E50SNB26E42 SLP017 P0000 T00001033 FZRANO
PAAK 160256Z AUTO 32011KT 10SM FEW042 SCT055 01/M04 A2955 RMK AO2 RAB26E29SNB29E50 SLP007 P0000 60000 T00061039 53023 FZRANO
PAAK 160156Z AUTO 31005KT 10SM SCT042 SCT050 01/M04 A2951 RMK AO2 SLP996 T00111044 FZRANO
PAAK 152356Z AUTO 32006KT 10SM BKN095 BKN110 01/M03 A2948 RMK AO2 SLP984 60000 T00111033 10011 21017 53006 FZRANO
PAAK 152256Z AUTO 31005KT 10SM FEW050 BKN120 01/M03 A2947 RMK AO2 RAB09E12UPB21E23SNB12E21 SLP981 P0000 T00061033 FZRANO
PAAK 152151Z AUTO 26006KT 9SM -SN FEW013 SCT035 OVC047 00/M01 A2946 RMK AO2 UPB31E33SNB33 P0000 FZRANO
PAAK 152144Z AUTO 29003KT 2 1/2SM -SN BR FEW011 SCT028 BKN037 00/M01 A2946 RMK AO2 UPB31E33SNB33 P0000 FZRANO
PAAK 152138Z AUTO 35007KT 1SM -SN BR FEW007 BKN037 00/M01 A2946 RMK AO2 UPB31E33SNB33 P0000 FZRANO
PAAK 152134Z AUTO 34012KT 1 1/2SM -SN BR BKN037 00/M02 A2946 RMK AO2 UPB31E33SNB33 P0000 FZRANO
PAAK 152056Z AUTO 35003KT 10SM FEW075 M01/M03 A2944 RMK AO2 UPE1958SNB1958E33 SLP971 P0000 60000 T10111028 51030 FZRANO
PAAK 152026Z AUTO 30003KT 3SM -SN BR SCT009 BKN032 OVC055 M01/M02 A2943 RMK AO2 UPE1958SNB1958 P0000 FZRANO
PAAK 152023Z AUTO VRB04KT 1 1/4SM -SN BR FEW007 BKN016 OVC036 M01/M02 A2943 RMK AO2 UPE1958SNB1958 CIG 012V022 P0000 FZRANO
PAAK 152016Z AUTO 29004KT 1/2SM SN FZFG SCT007 BKN013 OVC040 M01/M02 A2942 RMK AO2 UPE1958SNB1958 P0000 FZRANO
PAAK 152010Z AUTO 31011KT 3/4SM -SN BR FEW007 BKN019 OVC046 00/M02 A2943 RMK AO2 UPE1958SNB1958 P0000 FZRANO
PAAK 152007Z AUTO 31012KT 1 3/4SM -SN BR FEW013 SCT019 BKN036 00/M02 A2943 RMK AO2 UPE1958SNB1958 P0000 FZRANO
PAAK 151856Z AUTO 01003KT 10SM SCT036 BKN050 OVC110 00/M04 A2938 RMK AO2 UPB37E44RAB44E49 SLP951 P0000 T00001039 FZRANO
PAAK 151756Z AUTO 30005KT 10SM SCT039 OVC100 01/M04 A2935 RMK AO2 SLP940 60000 T00061044 10017 20000 53016 FZRANO
PAAK 151656Z AUTO 32005KT 10SM FEW036 OVC048 01/M03 A2933 RMK AO2 SLP934 T00111033 FZRANO
PAAK 151556Z AUTO 31004KT 10SM OVC044 00/M04 A2932 RMK AO2 SLP929 T00001039 FZRANO
PAAK 151356Z AUTO 30012KT 10SM OVC038 02/M03 A2928 RMK AO2 RAB14E16UPB32E37SNB16E32 SLP916 P0000 T00171028 FZRANO
PAAK 151256Z AUTO 29010KT 10SM OVC040 01/M03 A2926 RMK AO2 SLP910 T00111028 FZRANO
PAAK 151156Z AUTO 30006KT 10SM SCT037 01/M03 A2925 RMK AO2 SNE1058 SLP907 P0000 60000 70001 T00061033 10011 20000 53017 FZRANO
PAAK 151110Z AUTO 32008KT 10SM FEW024 SCT037 OVC044 01/M02 A2924 RMK AO2 SNE1058 P0000 FZRANO
PAAK 151056Z AUTO 28007KT 9SM -SN FEW015 BKN024 OVC045 01/M01 A2923 RMK AO2 RAB24E41SNB26 SLP899 P0000 T00111011 FZRANO